Time;durP1;ratioP1;P1;durP2;ratioP2;P2;SDS_P1;SDS_P2;PMS_P1;PMS_P2;Temp;Humidity;BMP_temperature;BMP_pressure;BME280_temperature;BME280_humidity;BME280_pressure;Samples;Min_cycle;Max_cycle;Signal;HPM_P1;HPM_P2
2023/08/16 10:47:48;;;;;;;37.65;36.13;;;28.30;73.30;;;;;;5044188;28;21456;-59
2023/08/16 10:50:14;;;;;;;38.50;36.25;;;27.90;72.20;;;;;;4958690;28;20704;-58
2023/08/16 10:52:42;;;;;;;38.83;37.42;;;27.60;72.70;;;;;;5000615;28;20464;-59
2023/08/16 10:55:07;;;;;;;42.20;40.40;;;27.40;73.00;;;;;;5008228;28;20565;-60
2023/08/16 10:57:34;;;;;;;45.03;43.42;;;27.30;76.00;;;;;;5008362;28;20175;-58
2023/08/16 11:02:37;;;;;;;52.50;49.53;;;27.30;77.60;;;;;;4994198;28;21000;-59
2023/08/16 11:26:00;;;;;;;45.50;43.67;;;29.70;69.40;;;;;;5034104;28;20554;-86
2023/08/16 11:28:30;;;;;;;42.22;40.53;;;30.20;65.30;;;;;;4893231;28;148606;-87
2023/08/16 11:30:57;;;;;;;48.00;46.30;;;30.80;63.20;;;;;;4982402;28;20273;-86
2023/08/16 11:33:22;;;;;;;47.33;45.33;;;31.10;63.00;;;;;;4951126;28;20248;-87
2023/08/16 11:35:48;;;;;;;55.75;52.83;;;31.70;61.30;;;;;;4975956;28;20775;-89
2023/08/16 11:38:21;;;;;;;53.45;51.40;;;31.80;59.60;;;;;;4989301;28;20170;-91
2023/08/16 11:40:57;;;;;;;50.33;48.38;;;31.70;60.70;;;;;;4985294;28;20773;-91
2023/08/16 11:43:33;;;;;;;50.38;48.50;;;31.90;59.20;;;;;;5014270;22;20278;-91
2023/08/16 11:46:01;;;;;;;51.60;49.60;;;31.60;60.20;;;;;;5034969;28;20207;-90
2023/08/16 11:48:30;;;;;;;51.08;49.17;;;31.40;61.70;;;;;;5043544;28;20176;-90
2023/08/16 11:50:59;;;;;;;50.92;48.83;;;31.10;61.10;;;;;;5043670;28;20187;-89
2023/08/16 11:53:33;;;;;;;51.72;49.42;;;31.00;61.70;;;;;;5042216;28;20192;-90
2023/08/16 11:56:00;;;;;;;53.53;51.05;;;31.30;60.70;;;;;;5038802;28;20215;-89
2023/08/16 11:58:26;;;;;;;52.20;50.10;;;31.40;61.30;;;;;;5044709;28;20204;-90
2023/08/16 12:00:53;;;;;;;52.33;50.33;;;31.60;60.40;;;;;;5043110;28;20488;-89
2023/08/16 12:03:18;;;;;;;51.28;49.28;;;31.80;59.30;;;;;;5044890;28;20208;-90
2023/08/16 12:05:49;;;;;;;53.22;51.10;;;31.70;60.30;;;;;;5045041;28;20208;-90
2023/08/16 12:08:20;;;;;;;54.25;52.22;;;31.30;60.50;;;;;;5043811;28;20245;-90
2023/08/16 12:10:56;;;;;;;55.33;52.67;;;31.50;60.70;;;;;;5045604;28;20552;-90
2023/08/16 12:13:23;;;;;;;48.95;46.78;;;32.00;59.00;;;;;;5045014;28;20179;-90
2023/08/16 12:15:49;;;;;;;46.80;45.05;;;32.50;57.60;;;;;;5040742;28;20208;-90
2023/08/16 12:18:17;;;;;;;47.05;45.17;;;32.20;57.80;;;;;;5043819;28;20177;-91
2023/08/16 12:20:49;;;;;;;47.90;46.20;;;31.90;57.80;;;;;;5046675;28;20191;-91
2023/08/16 12:23:15;;;;;;;48.38;46.28;;;32.00;60.10;;;;;;5046484;28;20188;-93
2023/08/16 12:25:41;;;;;;;47.53;45.83;;;32.30;58.60;;;;;;5044369;28;20618;-91
2023/08/16 12:28:07;;;;;;;47.13;45.33;;;32.60;56.20;;;;;;5045738;28;20662;-91
2023/08/16 12:30:33;;;;;;;53.58;51.67;;;33.20;55.40;;;;;;5046237;28;20193;-90
2023/08/16 12:32:59;;;;;;;55.92;53.90;;;33.80;53.70;;;;;;5044071;28;20185;-92
2023/08/16 12:35:25;;;;;;;60.28;57.92;;;33.40;51.90;;;;;;5042486;28;20212;-89
2023/08/16 12:37:50;;;;;;;61.88;59.70;;;33.60;53.00;;;;;;5031441;28;20185;-90
2023/08/16 12:40:16;;;;;;;59.78;57.72;;;33.40;53.20;;;;;;5029943;28;20197;-90
2023/08/16 12:42:41;;;;;;;51.28;49.47;;;32.90;54.10;;;;;;5030467;28;20350;-90
2023/08/16 12:45:09;;;;;;;52.42;50.42;;;32.60;55.10;;;;;;5031097;28;20201;-91
2023/08/16 12:47:34;;;;;;;48.00;46.15;;;32.40;54.90;;;;;;5022136;28;20285;-90
2023/08/16 12:50:00;;;;;;;50.85;48.75;;;32.40;55.50;;;;;;5028599;28;20279;-91
2023/08/16 12:52:26;;;;;;;54.25;52.17;;;32.60;54.20;;;;;;5028786;28;20220;-91
2023/08/16 12:54:52;;;;;;;54.28;52.17;;;33.10;54.90;;;;;;5025940;28;20221;-91
2023/08/16 12:57:18;;;;;;;54.83;52.42;;;33.60;52.00;;;;;;5026514;28;20173;-90
2023/08/16 12:59:46;;;;;;;52.45;50.55;;;33.30;50.90;;;;;;5029121;28;20193;-90
2023/08/16 13:02:13;;;;;;;53.72;51.45;;;32.90;52.80;;;;;;5025827;28;20193;-92
2023/08/16 13:04:39;;;;;;;55.30;53.35;;;33.20;52.70;;;;;;5027361;28;20184;-91
2023/08/16 13:07:06;;;;;;;62.20;59.78;;;34.00;49.10;;;;;;5027242;28;20183;-91
2023/08/16 13:09:32;;;;;;;69.10;66.70;;;34.10;50.50;;;;;;5028965;28;20234;-91
2023/08/16 13:11:58;;;;;;;68.72;66.18;;;34.10;51.60;;;;;;5029412;28;20184;-93
2023/08/16 13:14:24;;;;;;;66.75;64.45;;;33.80;50.10;;;;;;5031698;28;20195;-91
2023/08/16 13:16:50;;;;;;;65.07;62.83;;;33.80;49.40;;;;;;5028348;28;20208;-91
2023/08/16 13:19:16;;;;;;;67.63;65.32;;;33.70;50.10;;;;;;5031157;28;20804;-90
2023/08/16 13:21:42;;;;;;;71.25;68.80;;;34.30;48.30;;;;;;5032009;28;20165;-92
2023/08/16 13:24:12;;;;;;;67.85;65.32;;;35.10;45.70;;;;;;5029847;28;20277;-91
2023/08/16 13:26:43;;;;;;;73.40;70.57;;;34.80;47.40;;;;;;5026796;28;20266;-91
2023/08/16 13:29:10;;;;;;;71.68;69.18;;;34.00;48.00;;;;;;5028771;28;20193;-90
2023/08/16 13:31:36;;;;;;;73.05;70.38;;;34.00;48.10;;;;;;5029040;28;20264;-90
2023/08/16 13:34:04;;;;;;;75.75;72.93;;;34.00;48.20;;;;;;5029335;28;20200;-89
2023/08/16 13:36:30;;;;;;;69.45;66.95;;;34.60;47.30;;;;;;5029673;28;20256;-90
2023/08/16 13:38:56;;;;;;;60.45;58.30;;;34.80;46.50;;;;;;5032265;28;20181;-90
2023/08/16 13:41:23;;;;;;;61.17;59.08;;;35.00;45.30;;;;;;5029517;28;21035;-91
2023/08/16 13:43:49;;;;;;;63.95;61.55;;;34.50;48.40;;;;;;5028617;28;20208;-91
2023/08/16 13:46:14;;;;;;;62.17;60.00;;;34.60;48.90;;;;;;5026950;28;20267;-90
2023/08/16 13:48:41;;;;;;;58.97;56.63;;;34.90;46.70;;;;;;5027997;28;20196;-90
2023/08/16 13:51:06;;;;;;;57.60;55.50;;;35.50;45.70;;;;;;5030892;28;20192;-91
2023/08/16 13:53:32;;;;;;;58.85;56.55;;;35.40;44.40;;;;;;5027916;28;20195;-90
2023/08/16 13:56:00;;;;;;;63.60;61.38;;;35.20;47.20;;;;;;5025504;28;20566;-91
2023/08/16 13:58:32;;;;;;;60.55;58.40;;;35.30;45.90;;;;;;5030571;28;20198;-91
2023/08/16 14:00:58;;;;;;;60.40;58.20;;;35.50;44.80;;;;;;5029492;28;20574;-92
2023/08/16 14:03:24;;;;;;;56.35;54.35;;;35.10;45.90;;;;;;5027888;28;20180;-92
2023/08/16 14:06:08;;;;;;;57.30;54.63;;;34.70;45.20;;;;;;5027560;28;20998;-91
2023/08/16 14:08:34;;;;;;;57.40;55.10;;;35.20;47.00;;;;;;4966972;28;20247;-93
2023/08/16 14:10:59;;;;;;;57.25;55.13;;;35.30;45.60;;;;;;4990617;28;20288;-91
2023/08/16 14:13:28;;;;;;;57.90;55.90;;;35.60;45.70;;;;;;5037593;28;20222;-91
2023/08/16 14:15:58;;;;;;;58.65;56.47;;;35.50;44.60;;;;;;5038297;28;20208;-90
2023/08/16 14:18:24;;;;;;;59.20;56.53;;;35.20;44.40;;;;;;5031787;28;20566;-91
2023/08/16 14:20:51;;;;;;;60.17;57.95;;;35.70;43.20;;;;;;5037892;28;20169;-91
2023/08/16 14:23:16;;;;;;;58.97;56.78;;;35.40;43.60;;;;;;5039300;28;20181;-92
2023/08/16 14:25:49;;;;;;;57.20;55.10;;;35.20;44.80;;;;;;5039829;28;20203;-90
2023/08/16 14:28:15;;;;;;;60.70;58.33;;;35.50;44.70;;;;;;5038277;28;20530;-91
2023/08/16 14:30:41;;;;;;;68.57;66.07;;;35.70;44.00;;;;;;5037414;28;20185;-91
2023/08/16 14:33:12;;;;;;;65.93;63.40;;;35.60;44.50;;;;;;5038530;28;20263;-91
2023/08/16 14:35:38;;;;;;;71.78;69.20;;;35.60;43.20;;;;;;5037480;28;20238;-90
2023/08/16 14:38:04;;;;;;;69.38;66.93;;;35.50;43.10;;;;;;5037638;28;20168;-93
2023/08/16 14:40:30;;;;;;;60.95;58.78;;;35.60;43.60;;;;;;5036275;28;20508;-91
2023/08/16 14:42:56;;;;;;;66.63;63.95;;;35.50;43.40;;;;;;5036151;28;20219;-91
2023/08/16 14:45:23;;;;;;;78.50;75.80;;;35.70;42.20;;;;;;5037695;28;20204;-90
2023/08/16 14:47:48;;;;;;;79.68;77.10;;;35.90;42.10;;;;;;5036533;28;20447;-91
2023/08/16 14:50:14;;;;;;;80.57;77.55;;;36.20;41.90;;;;;;5036444;28;20543;-91
2023/08/16 14:52:40;;;;;;;76.65;74.07;;;35.70;42.90;;;;;;5036888;28;20188;-91
2023/08/16 14:55:06;;;;;;;58.15;56.03;;;34.90;44.80;;;;;;5037258;28;20404;-91
2023/08/16 14:57:31;;;;;;;57.50;54.17;;;34.40;46.60;;;;;;5037771;28;20164;-92
2023/08/16 14:59:57;;;;;;;69.05;66.43;;;33.70;48.00;;;;;;5037597;28;20168;-91
2023/08/16 15:02:23;;;;;;;78.10;75.55;;;33.30;50.10;;;;;;5048553;28;20177;-91
2023/08/16 15:04:48;;;;;;;81.97;79.28;;;33.30;50.30;;;;;;5051664;28;20157;-91
2023/08/16 15:07:14;;;;;;;75.22;72.82;;;33.30;50.50;;;;;;5049878;28;20203;-91
2023/08/16 15:09:40;;;;;;;68.93;66.38;;;34.50;44.80;;;;;;5039930;28;20511;-90
2023/08/16 15:12:06;;;;;;;61.10;59.03;;;35.40;35.00;;;;;;5025806;28;20177;-91
2023/08/16 15:14:32;;;;;;;66.32;63.97;;;34.30;35.10;;;;;;5018161;28;20699;-90
2023/08/16 15:16:58;;;;;;;72.95;70.63;;;33.70;35.40;;;;;;5016475;28;20165;-92
2023/08/16 15:19:24;;;;;;;74.43;71.97;;;33.50;36.90;;;;;;5018557;28;20780;-91
2023/08/16 15:21:49;;;;;;;75.93;73.38;;;33.70;35.00;;;;;;5024739;28;20177;-90
2023/08/16 15:24:15;;;;;;;75.03;72.47;;;33.70;35.40;;;;;;5038218;28;20184;-91
2023/08/16 15:26:40;;;;;;;73.22;70.85;;;33.60;36.10;;;;;;5037735;28;20211;-91
2023/08/16 15:29:06;;;;;;;71.60;69.03;;;33.70;35.60;;;;;;5038041;28;20173;-93
2023/08/16 15:31:32;;;;;;;75.05;72.57;;;33.50;35.70;;;;;;5036967;28;20184;-93
2023/08/16 15:33:57;;;;;;;75.32;72.75;;;33.40;36.70;;;;;;5036936;28;20266;-92
2023/08/16 15:36:23;;;;;;;74.45;71.90;;;33.20;37.70;;;;;;5037966;28;20192;-91
2023/08/16 15:38:48;;;;;;;73.10;70.63;;;33.20;37.10;;;;;;5023987;28;20666;-91
2023/08/16 15:41:14;;;;;;;75.88;73.32;;;33.40;36.80;;;;;;5017109;28;20265;-91
2023/08/16 15:43:42;;;;;;;74.63;72.25;;;33.70;36.30;;;;;;5017857;28;20669;-91
2023/08/16 15:46:09;;;;;;;74.88;72.38;;;33.00;37.30;;;;;;5017729;28;20216;-91
2023/08/16 15:48:35;;;;;;;71.50;69.22;;;33.10;39.30;;;;;;5032058;28;20220;-93
2023/08/16 15:51:01;;;;;;;62.83;60.67;;;33.00;39.60;;;;;;5048099;28;20225;-93
2023/08/16 15:53:27;;;;;;;55.42;53.08;;;32.30;41.00;;;;;;5047448;28;20168;-91
2023/08/16 15:55:54;;;;;;;53.55;51.65;;;31.70;42.40;;;;;;5047826;28;20713;-92
2023/08/16 15:58:24;;;;;;;53.45;51.53;;;31.60;43.90;;;;;;5047673;28;20193;-93
2023/08/16 16:00:55;;;;;;;50.10;48.35;;;31.80;42.90;;;;;;5047581;28;20165;-93
2023/08/16 16:03:21;;;;;;;51.83;49.92;;;31.30;44.80;;;;;;5050571;28;20173;-93
2023/08/16 16:05:47;;;;;;;49.67;47.97;;;31.40;44.80;;;;;;5047421;28;20196;-91
2023/08/16 16:08:12;;;;;;;47.83;46.10;;;31.20;45.20;;;;;;5046799;28;20242;-91
2023/08/16 16:10:38;;;;;;;50.13;48.33;;;31.30;45.30;;;;;;5049995;28;20215;-92
2023/08/16 16:13:04;;;;;;;52.22;50.13;;;31.90;43.10;;;;;;5053859;28;20177;-92
2023/08/16 16:15:29;;;;;;;60.25;58.20;;;33.40;40.70;;;;;;5054023;28;20240;-93
2023/08/16 16:17:55;;;;;;;74.50;72.05;;;33.90;38.90;;;;;;5052508;28;20204;-93
2023/08/16 16:20:21;;;;;;;68.13;65.80;;;33.40;39.40;;;;;;5049337;28;20185;-92
2023/08/16 16:22:46;;;;;;;53.97;52.17;;;32.30;41.40;;;;;;5048720;28;20251;-92
2023/08/16 16:25:12;;;;;;;49.30;47.50;;;32.00;43.80;;;;;;5065615;28;20236;-92
2023/08/16 16:27:38;;;;;;;48.33;46.72;;;31.00;48.10;;;;;;5049008;28;20181;-92
2023/08/16 16:30:04;;;;;;;55.75;53.58;;;30.40;49.90;;;;;;5040847;28;20335;-93
2023/08/16 16:32:30;;;;;;;55.85;53.83;;;29.60;53.10;;;;;;5026070;28;20185;-91
2023/08/16 16:34:55;;;;;;;58.50;56.30;;;29.60;52.30;;;;;;5027065;28;20789;-91
2023/08/16 16:37:21;;;;;;;57.38;55.20;;;29.50;54.10;;;;;;5041809;28;20647;-92
2023/08/16 16:39:47;;;;;;;56.95;54.80;;;29.20;57.50;;;;;;5044865;28;20276;-93
2023/08/16 16:42:12;;;;;;;58.22;56.08;;;29.30;57.40;;;;;;5048520;28;20169;-91
2023/08/16 16:44:38;;;;;;;57.67;55.45;;;29.60;53.60;;;;;;5047763;28;20195;-91
2023/08/16 16:47:04;;;;;;;60.85;58.65;;;29.90;53.20;;;;;;5047991;28;20626;-92
2023/08/16 16:49:29;;;;;;;57.40;55.40;;;30.10;51.70;;;;;;5047084;28;20264;-93
2023/08/16 16:51:55;;;;;;;56.20;54.30;;;30.30;51.80;;;;;;5048311;28;20173;-93
2023/08/16 16:54:21;;;;;;;57.25;55.15;;;30.30;51.30;;;;;;5050897;28;20252;-91
2023/08/16 16:56:46;;;;;;;56.75;54.63;;;30.50;49.00;;;;;;5051149;28;20189;-93
2023/08/16 16:59:12;;;;;;;56.22;53.97;;;30.90;50.60;;;;;;5049259;28;20180;-94
2023/08/16 17:01:37;;;;;;;55.50;53.45;;;30.70;53.60;;;;;;5048558;28;20192;-92
2023/08/16 17:04:04;;;;;;;56.50;54.50;;;30.10;56.00;;;;;;5031175;28;20190;-93
2023/08/16 17:06:29;;;;;;;49.95;48.05;;;29.60;56.50;;;;;;5032435;28;20205;-92
2023/08/16 17:08:58;;;;;;;47.97;45.97;;;29.40;60.10;;;;;;5032760;28;20216;-90
2023/08/16 17:11:24;;;;;;;46.28;44.67;;;29.10;64.40;;;;;;5033546;28;20181;-94
2023/08/16 17:13:53;;;;;;;49.55;47.80;;;28.90;67.70;;;;;;5032549;28;20227;-91
2023/08/16 17:16:21;;;;;;;52.15;50.17;;;28.90;66.10;;;;;;5032494;28;20216;-92
2023/08/16 17:18:46;;;;;;;51.05;49.22;;;28.70;63.20;;;;;;5033067;28;20178;-93
2023/08/16 17:21:14;;;;;;;865.03;825.67;;;28.60;62.10;;;;;;5042429;28;20200;-93
2023/08/16 17:23:46;;;;;;;960.20;912.03;;;28.30;62.80;;;;;;5052400;28;20157;-94
2023/08/16 17:26:12;;;;;;;949.15;900.90;;;28.20;64.40;;;;;;5051940;28;20201;-92
2023/08/16 17:28:39;;;;;;;930.33;885.00;;;28.00;64.50;;;;;;5049478;28;20246;-90
2023/08/16 17:31:08;;;;;;;894.88;853.03;;;28.10;64.70;;;;;;5043946;28;20153;-93
2023/08/16 17:33:35;;;;;;;893.50;851.42;;;28.00;64.60;;;;;;5040692;28;20248;-92
2023/08/16 17:36:03;;;;;;;920.40;875.05;;;27.90;64.70;;;;;;5038680;28;20235;-92
2023/08/16 17:38:28;;;;;;;922.20;877.45;;;27.90;65.60;;;;;;5034148;28;20166;-93
2023/08/16 17:40:54;;;;;;;942.45;895.05;;;27.80;66.10;;;;;;5039243;28;20203;-91
2023/08/16 17:43:20;;;;;;;962.15;911.60;;;27.70;67.80;;;;;;5038413;28;20185;-93
2023/08/16 17:45:47;;;;;;;1035.63;975.63;;;27.60;69.60;;;;;;5039342;28;20663;-93
2023/08/16 17:48:12;;;;;;;1065.05;996.05;;;27.40;78.50;;;;;;5039080;28;20180;-91
2023/08/16 17:50:39;;;;;;;1035.55;975.60;;;27.50;78.80;;;;;;5036078;28;20691;-93
2023/08/16 17:53:05;;;;;;;1025.72;968.15;;;27.50;77.10;;;;;;5037507;28;20850;-90
2023/08/16 17:55:31;;;;;;;1009.38;953.60;;;27.70;76.00;;;;;;5035837;28;20675;-91
2023/08/16 17:57:56;;;;;;;1019.80;963.05;;;27.20;76.00;;;;;;5036622;28;20442;-89
2023/08/16 18:00:22;;;;;;;1018.83;961.92;;;26.80;75.80;;;;;;5037044;28;20181;-90
2023/08/16 18:02:49;;;;;;;998.83;946.05;;;27.10;75.70;;;;;;5031622;28;20231;-90
2023/08/16 18:05:14;;;;;;;968.60;920.00;;;27.30;73.90;;;;;;5016685;28;20269;-90
2023/08/16 18:07:40;;;;;;;1011.00;956.08;;;27.10;71.60;;;;;;5018367;28;20161;-90
2023/08/16 18:10:06;;;;;;;1001.28;946.78;;;27.10;73.80;;;;;;5018507;28;20191;-89
2023/08/16 18:12:32;;;;;;;1012.50;956.67;;;27.10;74.00;;;;;;5015827;28;20166;-90
2023/08/16 18:14:58;;;;;;;972.95;922.80;;;27.20;73.70;;;;;;5026241;28;20270;-91
2023/08/16 18:17:23;;;;;;;973.95;923.08;;;27.30;72.50;;;;;;5036674;28;20231;-91
2023/08/16 18:19:49;;;;;;;1017.20;959.85;;;27.30;72.90;;;;;;5036085;28;20161;-92
2023/08/16 18:22:15;;;;;;;1033.00;973.28;;;27.10;75.60;;;;;;5036371;28;20177;-93
2023/08/16 18:24:40;;;;;;;1069.68;996.90;;;26.60;79.70;;;;;;5023476;28;20173;-90
2023/08/16 18:27:06;;;;;;;1038.25;977.95;;;26.50;80.00;;;;;;5031022;28;20150;-92
2023/08/16 18:29:32;;;;;;;1049.55;988.08;;;26.40;78.10;;;;;;5034300;28;20185;-89
2023/08/16 18:31:57;;;;;;;1038.20;978.45;;;26.40;77.50;;;;;;5039357;28;20277;-88
2023/08/16 18:34:25;;;;;;;1037.53;978.50;;;26.20;76.80;;;;;;5038482;28;20196;-90
2023/08/16 18:36:51;;;;;;;1033.30;975.55;;;26.30;76.90;;;;;;5042053;28;20208;-89
2023/08/16 18:39:17;;;;;;;1027.03;969.00;;;26.40;77.50;;;;;;5032113;28;20173;-89
2023/08/16 18:41:43;;;;;;;1034.93;977.20;;;26.40;78.60;;;;;;5021040;28;20766;-89
2023/08/16 18:44:08;;;;;;;1026.32;968.20;;;26.40;77.80;;;;;;5019117;28;20240;-90
2023/08/16 18:46:34;;;;;;;1033.95;974.95;;;26.50;77.70;;;;;;5016190;28;20197;-92
2023/08/16 18:48:59;;;;;;;984.22;932.17;;;26.50;77.30;;;;;;5015320;28;20188;-90
2023/08/16 18:51:25;;;;;;;967.00;916.05;;;26.50;76.30;;;;;;5017781;28;20166;-89
2023/08/16 18:53:51;;;;;;;971.78;921.00;;;26.70;75.20;;;;;;5036030;28;20192;-89
2023/08/16 18:56:17;;;;;;;965.17;916.42;;;26.70;75.00;;;;;;5037739;28;20235;-89
2023/08/16 18:58:42;;;;;;;1039.10;978.70;;;26.80;73.60;;;;;;5037013;28;20176;-92
2023/08/16 19:01:08;;;;;;;1050.07;987.45;;;26.50;79.30;;;;;;5041200;28;20188;-89
2023/08/16 19:03:33;;;;;;;986.67;933.28;;;26.00;83.50;;;;;;5040062;28;20196;-89
2023/08/16 19:05:59;;;;;;;1036.07;976.42;;;25.60;85.60;;;;;;5040179;28;20211;-91
2023/08/16 19:08:25;;;;;;;1034.30;975.80;;;25.80;84.10;;;;;;5042584;28;20176;-91
2023/08/16 19:10:50;;;;;;;1061.80;997.38;;;25.80;84.70;;;;;;5040773;28;20397;-90
2023/08/16 19:13:18;;;;;;;1066.90;999.33;;;25.80;82.90;;;;;;5042920;28;20161;-89
2023/08/16 19:15:46;;;;;;;1038.18;978.55;;;25.80;82.20;;;;;;5037798;28;20225;-89
2023/08/16 19:18:12;;;;;;;1034.45;976.30;;;25.80;83.60;;;;;;5055070;28;20216;-93
2023/08/16 19:20:38;;;;;;;1036.10;976.53;;;25.70;83.60;;;;;;5045332;28;20205;-92
2023/08/16 19:23:04;;;;;;;1030.63;972.60;;;25.70;83.80;;;;;;5045562;28;20172;-89
2023/08/16 19:25:30;;;;;;;995.15;941.00;;;25.60;85.10;;;;;;5038088;28;20211;-91
2023/08/16 19:27:56;;;;;;;966.53;916.65;;;25.50;85.40;;;;;;5036473;28;20191;-88
2023/08/16 19:30:22;;;;;;;969.53;920.13;;;25.20;87.40;;;;;;5035916;28;20213;-89
2023/08/16 19:32:49;;;;;;;993.53;939.95;;;25.10;87.90;;;;;;5035757;28;20173;-90
2023/08/16 19:35:15;;;;;;;981.53;929.63;;;25.10;87.00;;;;;;5032538;28;20220;-89
2023/08/16 19:37:41;;;;;;;991.78;939.55;;;25.20;83.80;;;;;;5028740;28;20408;-88
2023/08/16 19:40:08;;;;;;;996.15;943.13;;;25.40;82.90;;;;;;5035841;28;20173;-89
2023/08/16 19:42:34;;;;;;;1000.72;947.13;;;25.40;82.50;;;;;;5035824;28;20181;-88
2023/08/16 19:45:00;;;;;;;980.50;929.65;;;25.40;82.00;;;;;;5037177;28;20735;-90
2023/08/16 19:47:26;;;;;;;901.13;858.42;;;25.30;84.50;;;;;;5046900;28;20173;-91
2023/08/16 19:49:51;;;;;;;978.50;927.05;;;24.80;90.20;;;;;;5048185;28;20184;-89
2023/08/16 19:52:17;;;;;;;1012.13;957.50;;;24.90;88.80;;;;;;5051242;28;20319;-93
2023/08/16 19:54:44;;;;;;;1019.10;964.00;;;24.80;87.60;;;;;;5046261;28;20213;-90
2023/08/16 19:57:10;;;;;;;977.40;925.92;;;24.80;88.70;;;;;;5041047;28;20598;-90
2023/08/16 19:59:36;;;;;;;976.90;925.95;;;24.80;88.00;;;;;;5044580;28;20247;-91
2023/08/16 20:02:01;;;;;;;989.95;936.92;;;24.70;86.90;;;;;;5047735;28;20169;-92
2023/08/16 20:04:27;;;;;;;983.88;932.55;;;24.60;85.90;;;;;;5046893;28;20169;-91
2023/08/16 20:06:53;;;;;;;976.53;925.17;;;24.60;86.90;;;;;;5044230;28;20205;-91
2023/08/16 20:09:18;;;;;;;987.85;936.28;;;24.80;86.30;;;;;;5042237;28;20569;-92
2023/08/16 20:11:45;;;;;;;987.03;935.10;;;25.00;85.00;;;;;;5043990;28;20192;-90
2023/08/16 20:14:11;;;;;;;986.45;934.47;;;24.90;86.40;;;;;;5040348;28;20189;-90
2023/08/16 20:16:38;;;;;;;1004.03;948.90;;;24.80;89.50;;;;;;5041379;28;20258;-90
2023/08/16 20:19:04;;;;;;;998.42;943.28;;;24.60;89.40;;;;;;5040661;28;20161;-90
2023/08/16 20:21:30;;;;;;;997.55;942.67;;;24.50;90.90;;;;;;5043551;28;20188;-89
2023/08/16 20:23:57;;;;;;;977.60;925.53;;;24.40;90.70;;;;;;5039456;28;20206;-92
2023/08/16 20:26:23;;;;;;;943.97;895.60;;;24.30;92.40;;;;;;5042248;28;20204;-89
2023/08/16 20:28:48;;;;;;;899.47;855.22;;;24.20;93.70;;;;;;5039921;28;20188;-90
2023/08/16 20:31:14;;;;;;;901.13;857.90;;;24.10;94.10;;;;;;5040190;28;20175;-89
2023/08/16 20:33:40;;;;;;;884.75;842.97;;;24.00;95.40;;;;;;5038539;28;20196;-90
2023/08/16 20:36:06;;;;;;;880.08;839.10;;;24.10;95.10;;;;;;5039286;28;20228;-92
2023/08/16 20:38:32;;;;;;;884.10;842.50;;;24.10;95.00;;;;;;5038172;28;20177;-91
2023/08/16 20:40:59;;;;;;;891.00;849.70;;;24.00;95.20;;;;;;5039812;28;20447;-91
2023/08/16 20:43:25;;;;;;;894.50;853.13;;;24.10;94.70;;;;;;5038753;28;20188;-90
2023/08/16 20:45:50;;;;;;;843.65;805.78;;;24.00;96.20;;;;;;5039433;28;20204;-90
2023/08/16 20:48:16;;;;;;;838.40;801.78;;;24.00;94.60;;;;;;5036962;28;20314;-89
2023/08/16 20:50:42;;;;;;;828.08;791.65;;;24.10;92.70;;;;;;5039972;28;20165;-89
2023/08/16 20:53:08;;;;;;;834.78;798.67;;;24.10;92.20;;;;;;5036549;28;20169;-90
2023/08/16 20:55:33;;;;;;;826.70;790.78;;;24.10;92.10;;;;;;5040653;28;20307;-91
2023/08/16 20:57:59;;;;;;;821.90;786.50;;;24.10;91.90;;;;;;5040693;28;20176;-90
2023/08/16 21:00:25;;;;;;;841.00;804.35;;;24.10;92.10;;;;;;5041232;28;20181;-90
2023/08/16 21:02:50;;;;;;;834.45;797.55;;;24.00;92.50;;;;;;5041287;28;20181;-90
2023/08/16 21:05:16;;;;;;;831.60;795.40;;;24.00;92.70;;;;;;5039891;28;20196;-90
2023/08/16 21:07:42;;;;;;;836.22;800.50;;;24.10;92.10;;;;;;5041040;28;20231;-90
2023/08/16 21:10:08;;;;;;;833.85;797.65;;;24.10;92.70;;;;;;5040011;28;20229;-92
2023/08/16 21:12:33;;;;;;;873.15;834.10;;;24.30;91.20;;;;;;5039951;28;20324;-89
2023/08/16 21:14:59;;;;;;;861.88;823.28;;;24.20;91.50;;;;;;5040759;28;20215;-92
2023/08/16 21:17:25;;;;;;;857.72;818.03;;;24.10;91.70;;;;;;5040869;28;20184;-91
2023/08/16 21:19:50;;;;;;;871.42;830.35;;;24.00;92.50;;;;;;5038976;28;20177;-91
2023/08/16 21:22:16;;;;;;;897.65;854.60;;;23.90;93.40;;;;;;5037273;28;20698;-88
2023/08/16 21:24:41;;;;;;;908.00;863.17;;;23.80;93.90;;;;;;5038068;28;20251;-90
2023/08/16 21:27:07;;;;;;;868.95;828.35;;;23.70;95.20;;;;;;5037587;28;20203;-89
2023/08/16 21:29:33;;;;;;;855.83;816.78;;;23.50;96.60;;;;;;5038613;28;20173;-91
2023/08/16 21:31:59;;;;;;;864.10;825.55;;;23.40;97.50;;;;;;5039077;28;20161;-89
2023/08/16 21:34:25;;;;;;;851.78;814.45;;;23.40;97.60;;;;;;5039414;28;20379;-92
2023/08/16 21:36:57;;;;;;;851.95;814.38;;;23.50;97.10;;;;;;5039002;28;20204;-91
2023/08/16 21:39:23;;;;;;;815.78;781.22;;;23.50;96.30;;;;;;5040179;28;20245;-91
2023/08/16 21:41:48;;;;;;;828.67;793.10;;;23.50;94.10;;;;;;5036597;28;20248;-90
2023/08/16 21:44:14;;;;;;;820.92;785.80;;;23.40;93.30;;;;;;5038186;28;20207;-91
2023/08/16 21:46:40;;;;;;;823.70;788.80;;;23.40;92.80;;;;;;5038461;28;20280;-89
2023/08/16 21:49:07;;;;;;;813.63;779.67;;;23.20;92.80;;;;;;5038684;28;20211;-90
2023/08/16 21:51:32;;;;;;;819.67;784.72;;;23.20;93.20;;;;;;5039448;28;20173;-90
2023/08/16 21:53:58;;;;;;;831.90;796.15;;;23.20;92.20;;;;;;5038576;28;20235;-91
2023/08/16 21:56:23;;;;;;;848.45;811.08;;;23.40;92.30;;;;;;5038197;28;20231;-89
2023/08/16 21:58:49;;;;;;;847.88;810.67;;;23.30;91.40;;;;;;5040809;28;20185;-93
2023/08/16 22:01:15;;;;;;;861.88;823.03;;;23.20;91.90;;;;;;5039628;28;20184;-93
2023/08/16 22:03:40;;;;;;;850.78;813.25;;;23.20;91.00;;;;;;5039843;28;20207;-93
2023/08/16 22:06:06;;;;;;;841.72;804.10;;;23.20;91.30;;;;;;5039172;28;20216;-91
2023/08/16 22:08:33;;;;;;;848.58;811.00;;;23.20;90.50;;;;;;5040485;28;20169;-91
2023/08/16 22:11:00;;;;;;;832.33;795.78;;;23.00;89.90;;;;;;5050895;28;20181;-92
2023/08/16 22:13:55;;;;;;;818.05;783.38;;;22.90;89.50;;;;;;5049112;28;20197;-91
2023/08/16 22:16:21;;;;;;;792.47;759.60;;;22.90;89.50;;;;;;5046641;28;20221;-91
2023/08/16 22:18:46;;;;;;;784.42;751.95;;;22.80;90.10;;;;;;5046482;28;20207;-91
2023/08/16 22:21:32;;;;;;;825.72;790.35;;;22.80;89.70;;;;;;5052818;28;20177;-93
2023/08/16 22:24:13;;;;;;;774.95;743.08;;;22.70;90.70;;;;;;5057279;28;20177;-91
2023/08/16 22:26:39;;;;;;;779.40;748.22;;;22.70;90.40;;;;;;5043562;28;20197;-92
2023/08/16 22:29:05;;;;;;;776.50;745.20;;;22.80;90.00;;;;;;5041946;28;20168;-91
2023/08/16 22:31:31;;;;;;;774.30;743.53;;;22.80;89.60;;;;;;5056918;28;20188;-92
2023/08/16 22:33:59;;;;;;;782.95;750.92;;;22.90;89.40;;;;;;5057304;28;20189;-92
2023/08/16 22:36:25;;;;;;;783.53;751.13;;;22.80;90.30;;;;;;5052846;28;20208;-93
2023/08/16 22:38:51;;;;;;;783.65;751.95;;;22.70;89.50;;;;;;5052399;28;20166;-91
2023/08/16 22:41:16;;;;;;;816.63;782.63;;;22.70;89.50;;;;;;5042604;28;20177;-92
2023/08/16 22:43:42;;;;;;;820.50;785.15;;;22.70;90.20;;;;;;5036159;28;20199;-91
2023/08/16 22:46:11;;;;;;;799.70;765.40;;;22.50;90.60;;;;;;5035871;28;20205;-89
2023/08/16 22:48:37;;;;;;;791.38;758.15;;;22.30;91.50;;;;;;5037675;28;20665;-92
2023/08/16 22:51:03;;;;;;;786.83;754.47;;;22.20;92.10;;;;;;5035395;28;20181;-91
2023/08/16 22:53:28;;;;;;;792.78;759.50;;;22.30;91.80;;;;;;5036931;28;20173;-91
2023/08/16 22:55:54;;;;;;;785.60;753.25;;;22.30;91.50;;;;;;5035363;28;20556;-92
2023/08/16 22:58:20;;;;;;;781.05;749.13;;;22.30;91.30;;;;;;5052584;28;20173;-92
2023/08/16 23:00:46;;;;;;;781.97;749.95;;;22.20;91.70;;;;;;5037496;28;20223;-94
2023/08/16 23:03:11;;;;;;;774.35;742.85;;;22.30;91.50;;;;;;5038092;28;20168;-92
2023/08/16 23:05:37;;;;;;;792.05;759.45;;;22.20;91.50;;;;;;5037579;28;20231;-93
2023/08/16 23:08:04;;;;;;;777.70;746.10;;;22.20;91.90;;;;;;5036114;28;20174;-91
2023/08/16 23:10:30;;;;;;;780.15;748.28;;;22.20;92.00;;;;;;5037991;28;20168;-91
2023/08/16 23:12:55;;;;;;;775.00;743.58;;;22.20;92.10;;;;;;5038002;28;20769;-92
2023/08/16 23:15:21;;;;;;;768.78;737.30;;;22.10;92.40;;;;;;5037283;28;20213;-93
2023/08/16 23:17:47;;;;;;;781.72;749.30;;;22.10;91.70;;;;;;5034797;28;20177;-92
2023/08/16 23:20:12;;;;;;;785.13;752.75;;;22.10;91.70;;;;;;5016242;28;20189;-91
2023/08/16 23:22:40;;;;;;;779.03;747.10;;;22.30;91.80;;;;;;5023564;28;20173;-91